Time;durP1;ratioP1;P1;durP2;ratioP2;P2;SDS_P1;SDS_P2;PMS_P1;PMS_P2;Temp;Humidity;BMP_temperature;BMP_pressure;BME280_temperature;BME280_humidity;BME280_pressure;Samples;Min_cycle;Max_cycle;Signal;HPM_P1;HPM_P2
2022/11/12 00:01:11;;;;;;;2.17;1.60;;;;;;;-141.59;100.00;61776.25;5084788;28;20239;-83
2022/11/12 00:03:58;;;;;;;2.67;1.67;;;;;;;-141.59;100.00;61776.25;5081515;28;20212;-83
2022/11/12 00:06:45;;;;;;;5.70;2.00;;;;;;;-141.59;100.00;61776.25;5083126;28;20236;-82
2022/11/12 00:09:33;;;;;;;7.27;1.83;;;;;;;-141.59;100.00;61776.25;5081797;28;20216;-82
2022/11/12 00:12:18;;;;;;;2.53;1.80;;;;;;;-141.59;100.00;61776.25;5082914;28;20208;-81
2022/11/12 00:15:05;;;;;;;2.77;1.80;;;;;;;-141.59;100.00;61776.25;5080868;28;20332;-80
2022/11/12 00:17:51;;;;;;;3.73;2.07;;;;;;;-141.59;100.00;61776.25;5084563;28;20258;-80
2022/11/12 00:20:37;;;;;;;3.47;2.10;;;;;;;-141.59;100.00;61776.25;5086055;28;20257;-80
2022/11/12 00:23:23;;;;;;;2.00;1.70;;;;;;;-141.59;100.00;61776.25;5086197;28;20219;-82
2022/11/12 00:26:11;;;;;;;3.43;2.30;;;;;;;-141.59;100.00;61776.25;5087075;28;20281;-82
2022/11/12 00:28:59;;;;;;;3.93;2.37;;;;;;;-141.59;100.00;61776.25;5083450;28;20219;-80
2022/11/12 00:31:45;;;;;;;3.13;1.70;;;;;;;-141.59;100.00;61776.25;5083908;28;20216;-82
2022/11/12 00:34:30;;;;;;;2.63;1.90;;;;;;;-141.59;100.00;61776.25;5082375;28;20224;-82
2022/11/12 00:37:17;;;;;;;3.23;2.10;;;;;;;-141.59;100.00;61776.25;5086861;28;20232;-83
2022/11/12 00:40:05;;;;;;;3.73;1.90;;;;;;;-141.59;100.00;61776.25;5077900;28;20274;-83
2022/11/12 00:42:53;;;;;;;2.40;1.60;;;;;;;-141.59;100.00;61776.25;5085958;28;20215;-82
2022/11/12 00:45:38;;;;;;;2.37;1.63;;;;;;;-141.59;100.00;61776.25;5082239;28;20258;-82
2022/11/12 00:48:24;;;;;;;2.00;1.80;;;;;;;-141.59;100.00;61776.25;5085772;28;20208;-82
2022/11/12 00:51:10;;;;;;;3.83;2.40;;;;;;;-141.59;100.00;61776.25;5080172;28;20246;-83
2022/11/12 00:53:55;;;;;;;2.70;2.13;;;;;;;-141.59;100.00;61776.25;5083837;28;20212;-83
2022/11/12 00:56:41;;;;;;;4.50;2.63;;;;;;;-141.59;100.00;61776.25;5085696;28;20266;-83
2022/11/12 00:59:29;;;;;;;3.50;2.40;;;;;;;-141.59;100.00;61776.25;5077569;28;20235;-82
2022/11/12 01:02:15;;;;;;;3.97;2.30;;;;;;;-141.59;100.00;61776.25;5086385;28;20274;-82
2022/11/12 01:05:01;;;;;;;4.33;2.50;;;;;;;-141.59;100.00;61776.25;5083779;28;20340;-82
2022/11/12 01:07:46;;;;;;;3.83;2.33;;;;;;;-141.59;100.00;61776.25;5084182;28;20228;-82
2022/11/12 01:10:32;;;;;;;3.90;2.50;;;;;;;-141.59;100.00;61776.25;5079240;28;20216;-83
2022/11/12 01:13:18;;;;;;;6.00;2.33;;;;;;;-141.59;100.00;61776.25;5082626;28;20265;-83
2022/11/12 01:16:10;;;;;;;3.43;2.30;;;;;;;-141.59;100.00;61776.25;5080357;28;20288;-82
2022/11/12 01:18:58;;;;;;;4.03;2.40;;;;;;;-141.59;100.00;61776.25;5076813;28;20362;-82
2022/11/12 01:21:44;;;;;;;3.13;2.20;;;;;;;-141.59;100.00;61776.25;5084374;28;20219;-82
2022/11/12 01:24:29;;;;;;;3.23;2.20;;;;;;;-141.59;100.00;61776.25;5085170;28;20220;-82
2022/11/12 01:27:14;;;;;;;2.67;1.97;;;;;;;-141.59;100.00;61776.25;5088144;28;20227;-83
2022/11/12 01:30:00;;;;;;;4.07;2.10;;;;;;;-141.59;100.00;61776.25;5086960;28;20216;-82
2022/11/12 01:32:47;;;;;;;2.80;1.67;;;;;;;-141.59;100.00;61776.25;5079739;28;20229;-82
2022/11/12 01:35:33;;;;;;;2.43;1.83;;;;;;;-141.59;100.00;61776.25;5088210;28;20239;-83
2022/11/12 01:38:18;;;;;;;2.87;1.50;;;;;;;-141.59;100.00;61776.25;5081955;28;20275;-82
2022/11/12 01:41:08;;;;;;;4.67;1.50;;;;;;;-141.59;100.00;61776.25;5089804;28;20222;-82
2022/11/12 01:44:11;;;;;;;3.83;2.00;;;;;;;-141.59;100.00;61776.25;5083846;28;20212;-83
2022/11/12 01:47:04;;;;;;;3.43;1.70;;;;;;;-141.59;100.00;61776.25;5084745;28;20219;-82
2022/11/12 01:49:57;;;;;;;2.30;1.40;;;;;;;-141.59;100.00;61776.25;5086398;28;20219;-82
2022/11/12 01:52:46;;;;;;;2.40;1.63;;;;;;;-141.59;100.00;61776.25;5080792;28;20215;-82
2022/11/12 01:55:37;;;;;;;3.27;1.60;;;;;;;-141.59;100.00;61776.25;5083675;28;20244;-83
2022/11/12 01:58:25;;;;;;;4.13;1.50;;;;;;;-141.59;100.00;61776.25;5084152;28;20250;-82
2022/11/12 02:01:12;;;;;;;2.40;1.70;;;;;;;-141.59;100.00;61776.25;5084529;28;20219;-82
2022/11/12 02:03:58;;;;;;;4.07;1.57;;;;;;;-141.59;100.00;61776.25;5086887;28;20295;-82
2022/11/12 02:06:50;;;;;;;4.03;1.90;;;;;;;-141.59;100.00;61776.25;5083515;28;20375;-82
2022/11/12 02:09:36;;;;;;;1.87;1.60;;;;;;;-141.59;100.00;61776.25;5078264;28;20209;-82
2022/11/12 02:15:26;;;;;;;2.30;1.50;;;;;;;-141.59;100.00;61776.25;5084996;28;20281;-82
2022/11/12 02:18:12;;;;;;;3.13;1.50;;;;;;;-141.59;100.00;61776.25;5083470;28;20232;-82
2022/11/12 02:21:03;;;;;;;1.90;1.50;;;;;;;-141.59;100.00;61776.25;5088690;28;20208;-82
2022/11/12 02:23:59;;;;;;;1.37;1.27;;;;;;;-141.59;100.00;61776.25;5089476;28;20208;-83
2022/11/12 02:26:47;;;;;;;2.83;1.60;;;;;;;-141.59;100.00;61776.25;5078275;28;20212;-82
2022/11/12 02:29:33;;;;;;;3.57;1.53;;;;;;;-141.59;100.00;61776.25;5093255;28;20386;-83
2022/11/12 02:32:19;;;;;;;2.07;1.50;;;;;;;-141.59;100.00;61776.25;5084651;28;20270;-82
2022/11/12 02:35:06;;;;;;;1.90;1.47;;;;;;;-141.59;100.00;61776.25;5085835;28;20510;-82
2022/11/12 02:37:52;;;;;;;2.00;1.40;;;;;;;-141.59;100.00;61776.25;5088274;28;20276;-83
2022/11/12 02:40:49;;;;;;;1.40;1.30;;;;;;;-141.59;100.00;61776.25;5087977;28;20228;-82
2022/11/12 02:43:35;;;;;;;5.70;1.50;;;;;;;-141.59;100.00;61776.25;5089311;28;20210;-81
2022/11/12 02:46:22;;;;;;;2.87;1.40;;;;;;;-141.59;100.00;61776.25;5089361;28;20204;-80
2022/11/12 02:49:08;;;;;;;2.00;1.50;;;;;;;-141.59;100.00;61776.25;5079345;28;20303;-81
2022/11/12 02:51:54;;;;;;;2.47;1.47;;;;;;;-141.59;100.00;61776.25;5089614;28;20219;-83
2022/11/12 02:54:40;;;;;;;2.00;1.60;;;;;;;-141.59;100.00;61776.25;5087953;28;20279;-83
2022/11/12 02:57:28;;;;;;;2.30;1.50;;;;;;;-141.59;100.00;61776.25;5083972;28;20235;-82
2022/11/12 03:00:15;;;;;;;2.17;1.30;;;;;;;-141.59;100.00;61776.25;5086177;28;20221;-82
2022/11/12 03:03:01;;;;;;;1.43;1.23;;;;;;;-141.59;100.00;61776.25;5087104;28;20219;-83
2022/11/12 03:05:55;;;;;;;1.47;1.27;;;;;;;-141.59;100.00;61776.25;5078961;28;20260;-83
2022/11/12 03:08:43;;;;;;;2.63;1.50;;;;;;;-141.59;100.00;61776.25;5078616;28;20243;-82
2022/11/12 03:11:29;;;;;;;3.60;1.30;;;;;;;-141.59;100.00;61776.25;5088009;28;20254;-83
2022/11/12 03:14:17;;;;;;;1.80;1.37;;;;;;;-141.59;100.00;61776.25;5089982;28;20293;-82
2022/11/12 03:17:03;;;;;;;3.17;1.40;;;;;;;-141.59;100.00;61776.25;5089196;28;20207;-82
2022/11/12 03:19:49;;;;;;;2.30;1.67;;;;;;;-141.59;100.00;61776.25;5085626;28;20296;-82
2022/11/12 03:22:35;;;;;;;4.20;1.43;;;;;;;-141.59;100.00;61776.25;5085331;28;20263;-82
2022/11/12 03:25:20;;;;;;;1.73;1.60;;;;;;;-141.59;100.00;61776.25;5076762;28;20219;-83
2022/11/12 03:28:08;;;;;;;2.60;1.50;;;;;;;-141.59;100.00;61776.25;5077898;28;20271;-83
2022/11/12 03:30:57;;;;;;;2.23;1.47;;;;;;;-141.59;100.00;61776.25;5082598;28;20223;-82
2022/11/12 03:33:43;;;;;;;2.07;1.50;;;;;;;-141.59;100.00;61776.25;5090051;28;20310;-82
2022/11/12 03:36:29;;;;;;;1.50;1.33;;;;;;;-141.59;100.00;61776.25;5080938;28;20232;-83
2022/11/12 03:39:15;;;;;;;2.17;1.80;;;;;;;-141.59;100.00;61776.25;5088321;28;20221;-81
2022/11/12 03:42:00;;;;;;;1.97;1.60;;;;;;;-141.59;100.00;61776.25;5084280;28;20227;-83
2022/11/12 03:44:47;;;;;;;1.83;1.43;;;;;;;-141.59;100.00;61776.25;5083575;28;20199;-82
2022/11/12 03:47:34;;;;;;;3.03;1.37;;;;;;;-141.59;100.00;61776.25;5087364;28;20224;-82
2022/11/12 03:50:22;;;;;;;2.27;1.40;;;;;;;-141.59;100.00;61776.25;5086013;28;20222;-83
2022/11/12 03:53:09;;;;;;;1.40;1.27;;;;;;;-141.59;100.00;61776.25;5087987;28;20220;-82
2022/11/12 03:55:54;;;;;;;1.70;1.60;;;;;;;-141.59;100.00;61776.25;5089400;28;20223;-82
2022/11/12 03:58:40;;;;;;;1.83;1.50;;;;;;;-141.59;100.00;61776.25;5088217;28;20241;-82
2022/11/12 04:01:25;;;;;;;2.70;1.37;;;;;;;-141.59;100.00;61776.25;5085184;28;20216;-83
2022/11/12 04:04:12;;;;;;;2.67;1.50;;;;;;;-141.59;100.00;61776.25;5081184;28;20230;-82
2022/11/12 04:10:02;;;;;;;1.60;1.50;;;;;;;-141.59;100.00;61776.25;5086953;28;20319;-82
2022/11/12 04:21:49;;;;;;;2.63;1.97;;;;;;;-141.59;100.00;61776.25;5088041;28;20283;-82
2022/11/12 04:22:07;;;;;;;2.00;1.80;;;;;;;-141.59;100.00;61776.25;5085332;28;20235;-82
2022/11/12 04:27:58;;;;;;;3.73;1.60;;;;;;;-141.59;100.00;61776.25;5070337;28;20231;-82
2022/11/12 04:30:42;;;;;;;1.70;1.57;;;;;;;-141.59;100.00;61776.25;5086548;28;20211;-82
2022/11/12 04:33:28;;;;;;;2.40;1.83;;;;;;;-141.59;100.00;61776.25;5077963;28;20238;-82
2022/11/12 04:36:13;;;;;;;1.80;1.60;;;;;;;-141.59;100.00;61776.25;5078194;28;20252;-82
2022/11/12 04:39:01;;;;;;;2.43;1.50;;;;;;;-141.59;100.00;61776.25;5089798;28;20203;-81
2022/11/12 04:47:55;;;;;;;1.70;1.53;;;;;;;-141.59;100.00;61776.25;5085585;28;20297;-83
2022/11/12 04:50:41;;;;;;;2.80;1.80;;;;;;;-141.59;100.00;61776.25;5088688;28;20563;-83
2022/11/12 04:53:28;;;;;;;1.60;1.50;;;;;;;-141.59;100.00;61776.25;5086359;28;20215;-82
2022/11/12 04:56:15;;;;;;;1.43;1.33;;;;;;;-141.59;100.00;61776.25;5086084;28;20215;-82
2022/11/12 04:59:01;;;;;;;1.80;1.60;;;;;;;-141.59;100.00;61776.25;5079693;28;20211;-83
2022/11/12 05:01:47;;;;;;;2.57;1.70;;;;;;;-141.59;100.00;61776.25;5084796;28;20254;-82
2022/11/12 05:04:33;;;;;;;1.43;1.33;;;;;;;-141.59;100.00;61776.25;5083142;28;20216;-81
2022/11/12 05:07:19;;;;;;;1.60;1.50;;;;;;;-141.59;100.00;61776.25;5077542;28;20219;-82
2022/11/12 05:10:06;;;;;;;2.83;1.37;;;;;;;-141.59;100.00;61776.25;5083470;28;20216;-82
2022/11/12 05:12:53;;;;;;;1.93;1.20;;;;;;;-141.59;100.00;61776.25;5081590;28;20215;-81
2022/11/12 05:15:38;;;;;;;3.10;1.30;;;;;;;-141.59;100.00;61776.25;5080015;28;20220;-82
2022/11/12 05:18:23;;;;;;;1.60;1.20;;;;;;;-141.59;100.00;61776.25;5072038;28;20208;-82
2022/11/12 05:24:11;;;;;;;1.57;1.30;;;;;;;-141.59;100.00;61776.25;5086477;28;20215;-82
2022/11/12 05:26:57;;;;;;;2.30;1.63;;;;;;;-141.59;100.00;61776.25;5081762;28;20203;-82
2022/11/12 05:29:45;;;;;;;4.67;1.60;;;;;;;-141.59;100.00;61776.25;5083784;28;20200;-82
2022/11/12 05:32:31;;;;;;;1.50;1.30;;;;;;;-141.59;100.00;61776.25;5082113;28;20220;-80
2022/11/12 05:35:17;;;;;;;2.27;1.90;;;;;;;-141.59;100.00;61776.25;5081478;28;20301;-81
2022/11/12 05:38:03;;;;;;;2.57;1.60;;;;;;;-141.59;100.00;61776.25;5085453;28;20278;-81
2022/11/12 05:40:49;;;;;;;2.73;1.60;;;;;;;-141.59;100.00;61776.25;5083371;28;20207;-80
2022/11/12 05:43:35;;;;;;;1.90;1.70;;;;;;;-141.59;100.00;61776.25;5084114;28;20216;-80
2022/11/12 05:46:24;;;;;;;2.60;1.77;;;;;;;-141.59;100.00;61776.25;5077886;28;20212;-81
2022/11/12 05:49:10;;;;;;;2.33;2.00;;;;;;;-141.59;100.00;61776.25;5078235;28;20259;-80
2022/11/12 05:51:56;;;;;;;2.20;2.00;;;;;;;-141.59;100.00;61776.25;5082498;28;20219;-80
2022/11/12 05:54:41;;;;;;;3.63;2.60;;;;;;;-141.59;100.00;61776.25;5074494;28;20216;-80
2022/11/12 05:57:27;;;;;;;4.90;2.40;;;;;;;-141.59;100.00;61776.25;5085887;28;20281;-81
2022/11/12 06:00:14;;;;;;;3.87;2.30;;;;;;;-141.59;100.00;61776.25;5077473;28;20208;-81
2022/11/12 06:03:01;;;;;;;2.00;1.80;;;;;;;-141.59;100.00;61776.25;5088948;28;20207;-80
2022/11/12 06:05:46;;;;;;;2.93;2.00;;;;;;;-141.59;100.00;61776.25;5086519;28;20234;-82
2022/11/12 06:08:32;;;;;;;3.03;2.33;;;;;;;-141.59;100.00;61776.25;5084468;28;20244;-80
2022/11/12 06:11:17;;;;;;;3.00;1.70;;;;;;;-141.59;100.00;61776.25;5078533;28;20265;-80
2022/11/12 06:14:03;;;;;;;2.63;1.80;;;;;;;-141.59;100.00;61776.25;5078818;28;20216;-80
2022/11/12 06:16:49;;;;;;;2.60;2.20;;;;;;;-141.59;100.00;61776.25;5078978;28;20243;-81
2022/11/12 06:19:37;;;;;;;1.90;1.70;;;;;;;-141.59;100.00;61776.25;5079411;28;20273;-80
2022/11/12 06:22:22;;;;;;;4.20;1.70;;;;;;;-141.59;100.00;61776.25;5081546;28;20228;-81
2022/11/12 06:25:12;;;;;;;3.03;2.37;;;;;;;-141.59;100.00;61776.25;5093335;28;20228;-79
2022/11/12 06:27:58;;;;;;;2.13;1.43;;;;;;;-141.59;100.00;61776.25;5084937;28;20221;-79
2022/11/12 06:30:44;;;;;;;6.67;1.63;;;;;;;-141.59;100.00;61776.25;5084902;28;20261;-80
2022/11/12 06:33:30;;;;;;;1.87;1.33;;;;;;;-141.59;100.00;61776.25;5088902;28;20207;-81
2022/11/12 06:36:19;;;;;;;1.37;1.27;;;;;;;-141.59;100.00;61776.25;5083509;28;20236;-80
2022/11/12 06:39:08;;;;;;;1.43;1.27;;;;;;;-141.59;100.00;61776.25;5090707;28;20219;-80
2022/11/12 06:41:55;;;;;;;2.93;2.03;;;;;;;-141.59;100.00;61776.25;5084698;28;20232;-80
2022/11/12 06:44:42;;;;;;;1.60;1.50;;;;;;;-141.59;100.00;61776.25;5086587;28;20439;-81
2022/11/12 06:47:27;;;;;;;2.23;1.80;;;;;;;-141.59;100.00;61776.25;5085908;28;20277;-79
2022/11/12 06:50:13;;;;;;;4.20;1.97;;;;;;;-141.59;100.00;61776.25;5084066;28;20211;-79
2022/11/12 06:53:00;;;;;;;3.47;1.97;;;;;;;-141.59;100.00;61776.25;5084926;28;20212;-81
2022/11/12 06:55:46;;;;;;;3.00;2.27;;;;;;;-141.59;100.00;61776.25;5082564;28;20204;-79
2022/11/12 06:58:32;;;;;;;5.70;3.70;;;;;;;-141.59;100.00;61776.25;5083220;28;20212;-79
2022/11/12 07:01:22;;;;;;;5.27;3.30;;;;;;;-141.59;100.00;61776.25;5087830;28;20204;-80
2022/11/12 07:04:09;;;;;;;5.07;3.23;;;;;;;-141.59;100.00;61776.25;5083328;28;20204;-79
2022/11/12 07:06:54;;;;;;;6.80;3.60;;;;;;;-141.59;100.00;61776.25;5079378;28;20209;-79
2022/11/12 07:09:41;;;;;;;4.93;3.17;;;;;;;-141.59;100.00;61776.25;5085188;28;20228;-80
2022/11/12 07:12:27;;;;;;;3.57;3.00;;;;;;;-141.59;100.00;61776.25;5085073;28;20209;-81
2022/11/12 07:15:12;;;;;;;4.30;3.20;;;;;;;-141.59;100.00;61776.25;5088043;28;20212;-79
2022/11/12 07:17:58;;;;;;;6.50;3.20;;;;;;;-141.59;100.00;61776.25;5083138;28;20220;-80
2022/11/12 07:20:44;;;;;;;7.90;4.77;;;;;;;-141.59;100.00;61776.25;5086449;28;20208;-81
2022/11/12 07:23:31;;;;;;;7.60;4.97;;;;;;;-141.59;100.00;61776.25;5078843;28;20290;-81
2022/11/12 07:26:21;;;;;;;14.10;8.53;;;;;;;-141.59;100.00;61776.25;5084713;28;20261;-80
2022/11/12 07:29:07;;;;;;;5.00;3.37;;;;;;;-141.59;100.00;61776.25;5081544;28;20222;-80
2022/11/12 07:31:53;;;;;;;4.00;2.87;;;;;;;-141.59;100.00;61776.25;5076710;28;20334;-80
2022/11/12 07:34:39;;;;;;;6.23;3.47;;;;;;;-141.59;100.00;61776.25;5078425;28;20235;-80
2022/11/12 07:37:24;;;;;;;3.17;2.73;;;;;;;-141.59;100.00;61776.25;5087143;28;20342;-79
2022/11/12 07:40:10;;;;;;;6.40;3.73;;;;;;;-141.59;100.00;61776.25;5088996;28;20226;-81
2022/11/12 07:42:59;;;;;;;6.30;4.77;;;;;;;-141.59;100.00;61776.25;5084170;28;20212;-81
2022/11/12 07:45:44;;;;;;;6.57;3.87;;;;;;;-141.59;100.00;61776.25;5088369;28;20233;-80
2022/11/12 07:48:30;;;;;;;4.63;3.20;;;;;;;-141.59;100.00;61776.25;5087261;28;20249;-81
2022/11/12 07:51:18;;;;;;;6.93;2.50;;;;;;;-141.59;100.00;61776.25;5084180;28;20254;-80
2022/11/12 07:54:04;;;;;;;4.10;3.03;;;;;;;-141.59;100.00;61776.25;5090380;28;20216;-80
2022/11/12 07:56:50;;;;;;;7.33;2.83;;;;;;;-141.59;100.00;61776.25;5086726;28;20219;-81
2022/11/12 07:59:37;;;;;;;7.27;3.10;;;;;;;-141.59;100.00;61776.25;5084436;28;20289;-81
2022/11/12 08:02:23;;;;;;;4.00;2.90;;;;;;;-141.59;100.00;61776.25;5079584;28;20204;-80
2022/11/12 08:05:09;;;;;;;4.00;2.90;;;;;;;-141.59;100.00;61776.25;5080329;28;20215;-81
2022/11/12 08:07:56;;;;;;;4.67;2.93;;;;;;;-141.59;100.00;61776.25;5075367;28;20212;-80
2022/11/12 08:10:41;;;;;;;3.37;2.57;;;;;;;-141.59;100.00;61776.25;5083339;28;20216;-81
2022/11/12 08:13:27;;;;;;;6.47;3.60;;;;;;;-141.59;100.00;61776.25;5080497;28;20246;-81
2022/11/12 08:16:14;;;;;;;6.03;3.80;;;;;;;-141.59;100.00;61776.25;5076270;28;20219;-81
2022/11/12 08:19:01;;;;;;;5.13;3.30;;;;;;;-141.59;100.00;61776.25;5075199;28;20236;-80
2022/11/12 08:21:46;;;;;;;3.90;2.80;;;;;;;-141.59;100.00;61776.25;5081168;28;20214;-81
2022/11/12 08:24:31;;;;;;;5.27;3.13;;;;;;;-141.59;100.00;61776.25;5082098;28;20226;-80
2022/11/12 08:27:17;;;;;;;6.33;2.97;;;;;;;-141.59;100.00;61776.25;5086365;28;20211;-81
2022/11/12 08:30:04;;;;;;;3.07;2.77;;;;;;;-141.59;100.00;61776.25;5084610;28;20252;-82
2022/11/12 08:32:58;;;;;;;3.30;2.37;;;;;;;-141.59;100.00;61776.25;5086199;28;20226;-81
2022/11/12 08:35:44;;;;;;;3.83;2.97;;;;;;;-141.59;100.00;61776.25;5079063;28;20243;-83
2022/11/12 08:38:30;;;;;;;3.13;2.57;;;;;;;-141.59;100.00;61776.25;5081981;28;20343;-84
2022/11/12 08:41:16;;;;;;;3.57;2.53;;;;;;;-141.59;100.00;61776.25;5083953;28;20353;-80
2022/11/12 08:44:02;;;;;;;4.97;2.63;;;;;;;-141.59;100.00;61776.25;5084726;28;20310;-81
2022/11/12 08:46:48;;;;;;;3.30;2.40;;;;;;;-141.59;100.00;61776.25;5073937;28;20216;-81
2022/11/12 08:49:35;;;;;;;4.27;2.37;;;;;;;-141.59;100.00;61776.25;5087367;28;20298;-80
2022/11/12 08:52:20;;;;;;;3.57;2.57;;;;;;;-141.59;100.00;61776.25;5084767;28;20208;-81
2022/11/12 08:55:10;;;;;;;8.90;2.70;;;;;;;-141.59;100.00;61776.25;5084619;28;20339;-80
2022/11/12 08:58:00;;;;;;;3.63;2.70;;;;;;;-141.59;100.00;61776.25;5084818;28;20235;-79
2022/11/12 09:00:48;;;;;;;3.20;2.80;;;;;;;-141.59;100.00;61776.25;5088864;28;20203;-81
2022/11/12 09:03:34;;;;;;;8.03;4.20;;;;;;;-141.59;100.00;61776.25;5081467;28;20250;-80
2022/11/12 09:06:22;;;;;;;4.00;3.13;;;;;;;-141.59;100.00;61776.25;5082086;28;20266;-82
2022/11/12 09:09:08;;;;;;;4.47;2.67;;;;;;;-141.59;100.00;61776.25;5077983;28;20228;-81
2022/11/12 09:12:01;;;;;;;4.53;3.10;;;;;;;-141.59;100.00;61776.25;5082146;28;20285;-80
2022/11/12 09:14:47;;;;;;;5.47;3.10;;;;;;;-141.59;100.00;61776.25;5083817;28;20216;-81
2022/11/12 09:17:34;;;;;;;8.67;3.37;;;;;;;-141.59;100.00;61776.25;5079484;28;20231;-80
2022/11/12 09:20:19;;;;;;;6.53;4.10;;;;;;;-141.59;100.00;61776.25;5075305;28;20228;-80
2022/11/12 09:23:09;;;;;;;5.67;4.03;;;;;;;-141.59;100.00;61776.25;5084134;28;20208;-84
2022/11/12 09:26:00;;;;;;;5.97;4.20;;;;;;;-141.59;100.00;61776.25;5082144;28;20212;-82
2022/11/12 09:28:48;;;;;;;6.20;4.63;;;;;;;-141.59;100.00;61776.25;5086070;28;20286;-82
2022/11/12 09:31:34;;;;;;;6.33;4.30;;;;;;;-141.59;100.00;61776.25;5084269;28;20215;-85
2022/11/12 09:34:20;;;;;;;7.27;4.20;;;;;;;-141.59;100.00;61776.25;5075564;28;20226;-83
2022/11/12 09:37:09;;;;;;;7.03;4.90;;;;;;;-141.59;100.00;61776.25;5084184;28;20247;-80
2022/11/12 09:39:56;;;;;;;7.50;4.57;;;;;;;-141.59;100.00;61776.25;5086214;28;20200;-82
2022/11/12 09:42:45;;;;;;;5.33;4.50;;;;;;;-141.59;100.00;61776.25;5085270;28;20203;-81
2022/11/12 09:45:33;;;;;;;7.53;4.70;;;;;;;-141.59;100.00;61776.25;5086014;28;20314;-81
2022/11/12 09:48:22;;;;;;;5.70;4.60;;;;;;;-141.59;100.00;61776.25;5088835;28;20242;-82
2022/11/12 09:51:17;;;;;;;5.80;4.40;;;;;;;-141.59;100.00;61776.25;5083250;28;20208;-82
2022/11/12 09:54:13;;;;;;;6.17;4.30;;;;;;;-141.59;100.00;61776.25;5083072;28;20258;-81
2022/11/12 09:57:01;;;;;;;6.37;3.97;;;;;;;-141.59;100.00;61776.25;5081824;28;20232;-80
2022/11/12 09:59:48;;;;;;;5.43;4.03;;;;;;;-141.59;100.00;61776.25;5079388;28;20466;-80
2022/11/12 10:02:39;;;;;;;7.03;3.73;;;;;;;-141.59;100.00;61776.25;5084685;28;20235;-80
2022/11/12 10:05:32;;;;;;;5.50;3.67;;;;;;;-141.59;100.00;61776.25;5077903;28;20208;-80
2022/11/12 10:08:38;;;;;;;5.23;4.20;;;;;;;-141.59;100.00;61776.25;5090356;28;20269;-80
2022/11/12 10:18:42;;;;;;;5.43;3.80;;;;;;;-141.59;100.00;61776.25;5080897;28;20235;-81
2022/11/12 10:21:36;;;;;;;4.47;3.77;;;;;;;-141.59;100.00;61776.25;5087600;28;20302;-80
2022/11/12 10:24:23;;;;;;;4.77;3.50;;;;;;;-141.59;100.00;61776.25;5083169;28;20304;-81
2022/11/12 10:27:16;;;;;;;5.93;4.40;;;;;;;-141.59;100.00;61776.25;5085036;28;20274;-81
2022/11/12 10:30:06;;;;;;;4.87;3.67;;;;;;;-141.59;100.00;61776.25;5083494;28;20265;-81
2022/11/12 10:32:52;;;;;;;5.50;3.60;;;;;;;-141.59;100.00;61776.25;5090574;28;20227;-81
2022/11/12 10:35:38;;;;;;;5.87;3.37;;;;;;;-141.59;100.00;61776.25;5087568;28;20216;-81
2022/11/12 10:38:28;;;;;;;3.80;3.03;;;;;;;-141.59;100.00;61776.25;5081714;28;20216;-81
2022/11/12 10:41:23;;;;;;;4.77;3.47;;;;;;;-141.59;100.00;61776.25;5084052;28;20220;-82
2022/11/12 10:44:14;;;;;;;7.50;3.57;;;;;;;-141.59;100.00;61776.25;5086911;28;20212;-82
2022/11/12 10:47:41;;;;;;;3.60;3.27;;;;;;;-141.59;100.00;61776.25;5087878;28;20290;-82
2022/11/12 10:50:31;;;;;;;5.80;3.87;;;;;;;-141.59;100.00;61776.25;5019920;28;20234;-83
2022/11/12 10:53:32;;;;;;;5.33;3.40;;;;;;;-141.59;100.00;61776.25;5023082;28;20238;-82
2022/11/12 10:56:29;;;;;;;6.23;4.13;;;;;;;-141.59;100.00;61776.25;5078286;28;20298;-82
2022/11/12 10:59:17;;;;;;;4.00;3.60;;;;;;;-141.59;100.00;61776.25;5087898;28;20203;-82
2022/11/12 11:02:02;;;;;;;4.40;3.47;;;;;;;-141.59;100.00;61776.25;5081249;28;20291;-82
2022/11/12 11:04:49;;;;;;;4.90;3.50;;;;;;;-141.59;100.00;61776.25;5076401;28;20528;-82
2022/11/12 11:07:35;;;;;;;4.07;3.60;;;;;;;-141.59;100.00;61776.25;5077945;28;20208;-82
2022/11/12 11:10:25;;;;;;;5.23;3.67;;;;;;;-141.59;100.00;61776.25;5074429;28;20224;-82
2022/11/12 11:13:23;;;;;;;6.13;4.00;;;;;;;-141.59;100.00;61776.25;5083881;28;20211;-82
2022/11/12 11:16:12;;;;;;;4.57;3.83;;;;;;;-141.59;100.00;61776.25;5082309;28;20211;-83
2022/11/12 11:19:00;;;;;;;5.70;4.30;;;;;;;-141.59;100.00;61776.25;5073787;28;20327;-82
2022/11/12 11:22:02;;;;;;;7.53;4.33;;;;;;;-141.59;100.00;61776.25;5074262;28;20258;-82
2022/11/12 11:24:57;;;;;;;4.37;3.90;;;;;;;-141.59;100.00;61776.25;5092526;28;20203;-82
2022/11/12 11:27:54;;;;;;;5.27;4.23;;;;;;;-141.59;100.00;61776.25;5092071;28;20212;-82
2022/11/12 11:30:52;;;;;;;6.10;4.10;;;;;;;-141.59;100.00;61776.25;5085623;28;20231;-82
2022/11/12 11:33:48;;;;;;;5.90;4.40;;;;;;;-141.59;100.00;61776.25;5075849;28;20309;-82
2022/11/12 11:36:42;;;;;;;5.00;4.27;;;;;;;-141.59;100.00;61776.25;5078362;28;20240;-82
2022/11/12 11:39:41;;;;;;;6.60;4.40;;;;;;;-141.59;100.00;61776.25;5086335;28;20251;-82
2022/11/12 11:42:52;;;;;;;5.33;4.37;;;;;;;-141.59;100.00;61776.25;5085027;28;20215;-82
2022/11/12 11:45:54;;;;;;;4.97;4.17;;;;;;;-141.59;100.00;61776.25;5080386;28;20221;-83
2022/11/12 11:48:54;;;;;;;6.30;4.27;;;;;;;-141.59;100.00;61776.25;5074920;28;20204;-83
2022/11/12 11:51:51;;;;;;;4.73;4.30;;;;;;;-141.59;100.00;61776.25;5073717;28;20265;-82
2022/11/12 11:54:53;;;;;;;7.43;5.00;;;;;;;-141.59;100.00;61776.25;5088540;28;20241;-82
2022/11/12 11:57:55;;;;;;;6.50;4.60;;;;;;;-141.59;100.00;61776.25;5091994;28;20282;-82
2022/11/12 12:00:48;;;;;;;6.60;4.47;;;;;;;-141.59;100.00;61776.25;5087809;28;20278;-82
2022/11/12 12:03:50;;;;;;;5.17;4.23;;;;;;;-141.59;100.00;61776.25;5092786;28;20212;-82
2022/11/12 12:06:46;;;;;;;4.90;4.07;;;;;;;-141.59;100.00;61776.25;5102094;28;20252;-82
2022/11/12 12:09:38;;;;;;;7.53;4.53;;;;;;;-141.59;100.00;61776.25;5082102;28;20221;-82
2022/11/12 12:12:36;;;;;;;4.90;4.50;;;;;;;-141.59;100.00;61776.25;5088611;28;20249;-82
2022/11/12 12:15:38;;;;;;;5.30;4.30;;;;;;;-141.59;100.00;61776.25;5086362;28;20234;-82
2022/11/12 12:18:36;;;;;;;6.70;4.00;;;;;;;-141.59;100.00;61776.25;5081942;28;20211;-82
2022/11/12 12:21:25;;;;;;;6.20;4.50;;;;;;;-141.59;100.00;61776.25;5081564;28;20237;-82
2022/11/12 12:24:17;;;;;;;5.47;4.27;;;;;;;-141.59;100.00;61776.25;5079440;28;20225;-82
2022/11/12 12:27:10;;;;;;;7.47;4.60;;;;;;;-141.59;100.00;61776.25;5081252;28;20213;-83
2022/11/12 12:30:01;;;;;;;5.63;4.73;;;;;;;-141.59;100.00;61776.25;5082708;28;20231;-82
2022/11/12 12:32:54;;;;;;;6.97;3.93;;;;;;;-141.59;100.00;61776.25;5074567;28;20212;-82
2022/11/12 12:35:51;;;;;;;5.60;4.30;;;;;;;-141.59;100.00;61776.25;5082628;28;20232;-82
2022/11/12 12:38:44;;;;;;;4.80;3.73;;;;;;;-141.59;100.00;61776.25;5083246;28;20217;-82
2022/11/12 12:41:37;;;;;;;5.57;3.93;;;;;;;-141.59;100.00;61776.25;5086436;28;20297;-82
2022/11/12 12:44:58;;;;;;;4.40;3.80;;;;;;;-141.59;100.00;61776.25;5075269;28;20259;-82
2022/11/12 12:47:41;;;;;;;6.33;4.00;;;;;;;-141.59;100.00;61776.25;5077067;28;20211;-83
2022/11/12 12:50:28;;;;;;;6.43;4.90;;;;;;;-141.59;100.00;61776.25;5086176;28;20247;-82
2022/11/12 12:53:31;;;;;;;6.07;4.77;;;;;;;-141.59;100.00;61776.25;5086779;28;20250;-82
2022/11/12 12:56:48;;;;;;;6.63;4.40;;;;;;;-141.59;100.00;61776.25;5078812;28;20215;-82
2022/11/12 12:59:34;;;;;;;4.60;4.00;;;;;;;-141.59;100.00;61776.25;5083540;28;20242;-82
2022/11/12 13:02:21;;;;;;;5.30;4.00;;;;;;;-141.59;100.00;61776.25;5079372;28;20204;-83
2022/11/12 13:05:23;;;;;;;6.60;4.60;;;;;;;-141.59;100.00;61776.25;5086553;28;20208;-83
2022/11/12 13:08:12;;;;;;;5.07;4.27;;;;;;;-141.59;100.00;61776.25;5080235;28;20215;-82
2022/11/12 13:10:58;;;;;;;6.10;5.10;;;;;;;-141.59;100.00;61776.25;5079059;28;20270;-82
2022/11/12 13:13:43;;;;;;;5.57;4.63;;;;;;;-141.59;100.00;61776.25;5081908;28;20216;-82
2022/11/12 13:16:56;;;;;;;8.80;5.00;;;;;;;-141.59;100.00;61776.25;5085397;28;20199;-82
2022/11/12 13:19:46;;;;;;;6.00;4.90;;;;;;;-141.59;100.00;61776.25;5086693;28;20232;-82